Time,TemperatureF,DewpointF,PressureIn,WindDirection,WindDirectionDegrees,WindSpeedMPH,WindSpeedGustMPH,Humidity,HourlyPrecipIn,Conditions,Clouds,dailyrainin,SoftwareType,DateUTC
2013-07-15 00:01:00,72.4,64.7,30.17,East,90,2.0,2.5,77,0.00,,,0.00,WUHU216HW,2013-07-15 05:01:00,
2013-07-15 00:06:00,72.4,65.2,30.17,East,90,2.0,2.2,78,0.00,,,0.00,WUHU216HW,2013-07-15 05:06:00,
2013-07-15 00:11:00,72.4,65.2,30.17,East,90,1.3,2.5,78,0.00,,,0.00,WUHU216HW,2013-07-15 05:11:00,
2013-07-15 00:16:00,72.4,65.5,30.17,NE,45,2.0,2.5,79,0.00,,,0.00,WUHU216HW,2013-07-15 05:16:00,
2013-07-15 00:21:00,72.4,65.2,30.17,East,90,2.5,2.5,78,0.00,,,0.00,WUHU216HW,2013-07-15 05:21:00,
2013-07-15 00:26:00,72.4,65.2,30.17,East,90,1.8,2.9,78,0.00,,,0.00,WUHU216HW,2013-07-15 05:26:00,
2013-07-15 00:31:00,72.2,65.4,30.17,East,90,2.5,2.9,79,0.00,,,0.00,WUHU216HW,2013-07-15 05:31:00,
2013-07-15 00:36:00,72.0,65.5,30.17,ESE,113,2.2,3.4,80,0.00,,,0.00,WUHU216HW,2013-07-15 05:36:00,
2013-07-15 00:41:00,72.0,65.2,30.17,ESE,113,1.8,3.4,79,0.00,,,0.00,WUHU216HW,2013-07-15 05:41:00,
2013-07-15 00:46:00,72.0,65.5,30.17,ESE,113,2.5,3.4,80,0.00,,,0.00,WUHU216HW,2013-07-15 05:46:00,
2013-07-15 00:51:00,71.8,65.3,30.17,East,90,2.0,2.7,80,0.00,,,0.00,WUHU216HW,2013-07-15 05:51:00,
2013-07-15 00:56:00,71.8,65.3,30.17,East,90,2.5,2.9,80,0.00,,,0.00,WUHU216HW,2013-07-15 05:56:00,
2013-07-15 01:01:00,71.8,65.3,30.17,ENE,68,2.0,3.4,80,0.00,,,0.00,WUHU216HW,2013-07-15 06:01:00,
2013-07-15 01:06:00,71.6,65.2,30.17,East,90,1.8,3.4,80,0.00,,,0.00,WUHU216HW,2013-07-15 06:06:00,
2013-07-15 01:11:00,71.6,65.2,30.17,East,90,2.5,2.9,80,0.00,,,0.00,WUHU216HW,2013-07-15 06:11:00,
2013-07-15 01:16:00,71.5,65.0,30.17,ESE,113,1.3,2.7,80,0.00,,,0.00,WUHU216HW,2013-07-15 06:16:00,
2013-07-15 01:21:00,71.3,64.8,30.17,East,90,1.8,2.5,80,0.00,,,0.00,WUHU216HW,2013-07-15 06:21:00,
2013-07-15 01:26:00,71.3,64.8,30.17,East,90,0.9,2.5,80,0.00,,,0.00,WUHU216HW,2013-07-15 06:26:00,
2013-07-15 01:31:00,70.9,64.4,30.17,ENE,68,0.9,1.8,80,0.00,,,0.00,WUHU216HW,2013-07-15 06:31:00,
2013-07-15 01:36:00,70.9,64.4,30.17,ENE,68,0.9,1.3,80,0.00,,,0.00,WUHU216HW,2013-07-15 06:36:00,
2013-07-15 01:41:00,70.7,64.3,30.17,East,90,1.1,1.8,80,0.00,,,0.00,WUHU216HW,2013-07-15 06:41:00,
2013-07-15 01:46:00,70.6,64.5,30.18,East,90,1.1,1.8,81,0.00,,,0.00,WUHU216HW,2013-07-15 06:46:00,
2013-07-15 01:51:00,70.6,64.5,30.18,East,90,1.8,1.8,81,0.00,,,0.00,WUHU216HW,2013-07-15 06:51:00,
2013-07-15 01:56:00,70.4,63.9,30.18,East,90,1.8,1.8,80,0.00,,,0.00,WUHU216HW,2013-07-15 06:56:00,
2013-07-15 02:01:00,70.2,63.7,30.18,East,90,1.1,1.8,80,0.00,,,0.00,WUHU216HW,2013-07-15 07:01:00,
2013-07-15 02:06:00,70.2,64.7,30.18,East,90,1.6,1.8,83,0.00,,,0.00,WUHU216HW,2013-07-15 07:06:00,
2013-07-15 02:11:00,70.2,64.7,30.18,East,90,1.1,2.5,83,0.00,,,0.00,WUHU216HW,2013-07-15 07:11:00,
2013-07-15 02:16:00,70.2,64.5,30.18,East,90,1.1,2.5,82,0.00,,,0.00,WUHU216HW,2013-07-15 07:16:00,
2013-07-15 02:21:00,70.4,64.9,30.18,ENE,68,1.8,2.5,83,0.00,,,0.00,WUHU216HW,2013-07-15 07:21:00,
2013-07-15 02:26:00,70.4,64.9,30.18,NE,45,2.0,2.5,83,0.00,,,0.00,WUHU216HW,2013-07-15 07:26:00,
2013-07-15 02:31:00,70.6,64.8,30.18,NE,45,0.7,2.2,82,0.00,,,0.00,WUHU216HW,2013-07-15 07:31:00,
2013-07-15 02:36:00,70.4,64.3,30.18,NE,45,0.4,2.0,81,0.00,,,0.00,WUHU216HW,2013-07-15 07:36:00,
2013-07-15 02:41:00,70.2,64.1,30.18,NE,45,0.0,1.1,81,0.00,,,0.00,WUHU216HW,2013-07-15 07:41:00,
2013-07-15 02:46:00,69.8,63.4,30.18,NE,45,0.0,0.4,80,0.00,,,0.00,WUHU216HW,2013-07-15 07:46:00,
2013-07-15 02:51:00,69.5,63.4,30.19,NE,45,0.4,0.4,81,0.00,,,0.00,WUHU216HW,2013-07-15 07:51:00,
2013-07-15 02:56:00,69.3,63.2,30.19,SE,135,1.1,1.1,81,0.00,,,0.00,WUHU216HW,2013-07-15 07:56:00,
2013-07-15 03:01:00,69.1,63.4,30.19,SSE,158,0.9,1.6,82,0.00,,,0.00,WUHU216HW,2013-07-15 08:01:00,
2013-07-15 03:06:00,68.9,63.2,30.19,SE,135,0.4,1.6,82,0.00,,,0.00,WUHU216HW,2013-07-15 08:06:00,
2013-07-15 03:11:00,68.8,63.1,30.19,SE,135,0.9,1.1,82,0.00,,,0.00,WUHU216HW,2013-07-15 08:11:00,
2013-07-15 03:16:00,68.8,63.7,30.19,East,90,1.6,1.8,84,0.00,,,0.00,WUHU216HW,2013-07-15 08:16:00,
2013-07-15 03:21:00,68.9,63.5,30.19,ESE,113,0.0,1.8,83,0.00,,,0.00,WUHU216HW,2013-07-15 08:21:00,
2013-07-15 03:26:00,68.9,63.5,30.19,ESE,113,0.0,1.6,83,0.00,,,0.00,WUHU216HW,2013-07-15 08:26:00,
2013-07-15 03:31:00,68.8,63.4,30.19,East,90,0.9,1.1,83,0.00,,,0.00,WUHU216HW,2013-07-15 08:31:00,
2013-07-15 03:36:00,68.9,63.9,30.19,ENE,68,1.1,1.1,84,0.00,,,0.00,WUHU216HW,2013-07-15 08:36:00,
2013-07-15 03:41:00,69.1,64.1,30.19,ENE,68,0.4,1.1,84,0.00,,,0.00,WUHU216HW,2013-07-15 08:41:00,
2013-07-15 03:46:00,69.1,64.1,30.19,ENE,68,1.6,1.6,84,0.00,,,0.00,WUHU216HW,2013-07-15 08:46:00,
2013-07-15 03:51:00,69.1,64.1,30.19,NE,45,0.9,1.8,84,0.00,,,0.00,WUHU216HW,2013-07-15 08:51:00,
2013-07-15 03:56:00,69.1,64.1,30.19,NE,45,1.1,1.8,84,0.00,,,0.00,WUHU216HW,2013-07-15 08:56:00,
2013-07-15 04:01:00,69.1,64.1,30.19,East,90,1.3,1.8,84,0.00,,,0.00,WUHU216HW,2013-07-15 09:01:00,
2013-07-15 04:06:00,68.9,63.9,30.19,East,90,1.1,1.8,84,0.00,,,0.00,WUHU216HW,2013-07-15 09:06:00,
2013-07-15 04:11:00,68.8,63.7,30.19,East,90,1.1,1.3,84,0.00,,,0.00,WUHU216HW,2013-07-15 09:11:00,
2013-07-15 04:16:00,68.8,63.7,30.19,East,90,0.0,1.3,84,0.00,,,0.00,WUHU216HW,2013-07-15 09:16:00,
2013-07-15 04:21:00,68.4,63.4,30.19,East,90,0.0,1.3,84,0.00,,,0.00,WUHU216HW,2013-07-15 09:21:00,
2013-07-15 04:26:00,68.4,63.4,30.19,East,90,0.0,0.9,84,0.00,,,0.00,WUHU216HW,2013-07-15 09:26:00,
2013-07-15 04:31:00,68.2,63.2,30.19,East,90,0.9,1.1,84,0.00,,,0.00,WUHU216HW,2013-07-15 09:31:00,
2013-07-15 04:36:00,68.2,63.9,30.19,ENE,68,1.8,1.8,86,0.00,,,0.00,WUHU216HW,2013-07-15 09:36:00,
2013-07-15 04:41:00,68.4,64.4,30.19,East,90,1.6,2.5,87,0.00,,,0.00,WUHU216HW,2013-07-15 09:41:00,
2013-07-15 04:46:00,68.4,64.0,30.19,East,90,1.3,2.5,86,0.00,,,0.00,WUHU216HW,2013-07-15 09:46:00,
2013-07-15 04:51:00,68.4,64.7,30.19,East,90,1.8,3.6,88,0.00,,,0.00,WUHU216HW,2013-07-15 09:51:00,
2013-07-15 04:56:00,68.4,64.4,30.19,ESE,113,1.6,3.6,87,0.00,,,0.00,WUHU216HW,2013-07-15 09:56:00,
2013-07-15 05:01:00,68.2,64.2,30.19,ESE,113,1.8,2.5,87,0.00,,,0.00,WUHU216HW,2013-07-15 10:01:00,
2013-07-15 05:06:00,68.0,63.7,30.19,SE,135,2.5,2.5,86,0.00,,,0.00,WUHU216HW,2013-07-15 10:06:00,
2013-07-15 05:11:00,68.0,63.7,30.19,ESE,113,2.0,2.5,86,0.00,,,0.00,WUHU216HW,2013-07-15 10:11:00,
2013-07-15 05:16:00,68.0,63.7,30.19,ESE,113,1.8,3.1,86,0.00,,,0.00,WUHU216HW,2013-07-15 10:16:00,
2013-07-15 05:21:00,68.0,64.0,30.19,East,90,1.8,3.1,87,0.00,,,0.00,WUHU216HW,2013-07-15 10:21:00,
2013-07-15 05:26:00,68.0,64.0,30.19,East,90,1.3,2.5,87,0.00,,,0.00,WUHU216HW,2013-07-15 10:26:00,
2013-07-15 05:31:00,68.0,63.7,30.19,ESE,113,1.6,2.2,86,0.00,,,0.00,WUHU216HW,2013-07-15 10:31:00,
2013-07-15 05:36:00,67.9,63.6,30.19,ESE,113,2.2,2.2,86,0.00,,,0.00,WUHU216HW,2013-07-15 10:36:00,
2013-07-15 05:41:00,67.9,63.8,30.20,SE,135,2.0,2.2,87,0.00,,,0.00,WUHU216HW,2013-07-15 10:41:00,
2013-07-15 05:46:00,67.9,63.8,30.20,ESE,113,1.1,2.2,87,0.00,,,0.00,WUHU216HW,2013-07-15 10:46:00,
2013-07-15 05:51:00,68.0,64.0,30.20,SE,135,0.7,2.0,87,0.00,,,0.00,WUHU216HW,2013-07-15 10:51:00,
2013-07-15 05:56:00,68.0,63.7,30.20,SE,135,1.1,1.8,86,0.00,,,0.00,WUHU216HW,2013-07-15 10:56:00,
2013-07-15 06:01:00,68.0,63.7,30.20,ESE,113,2.5,2.5,86,0.00,,,0.00,WUHU216HW,2013-07-15 11:01:00,
2013-07-15 06:06:00,68.8,64.7,30.20,SE,135,1.6,2.5,87,0.00,,,0.00,WUHU216HW,2013-07-15 11:06:00,
2013-07-15 06:11:00,69.8,65.4,30.20,SE,135,2.5,2.9,86,0.00,,,0.00,WUHU216HW,2013-07-15 11:11:00,
2013-07-15 06:16:00,70.9,66.2,30.20,ESE,113,1.8,2.9,85,0.00,,,0.00,WUHU216HW,2013-07-15 11:16:00,
2013-07-15 06:21:00,72.5,67.4,30.20,SE,135,1.1,2.5,84,0.00,,,0.00,WUHU216HW,2013-07-15 11:21:00,
2013-07-15 06:26:00,74.7,68.6,30.20,East,90,1.1,2.5,81,0.00,,,0.00,WUHU216HW,2013-07-15 11:26:00,
2013-07-15 06:31:00,76.0,67.5,30.20,ENE,68,2.5,2.7,75,0.00,,,0.00,WUHU216HW,2013-07-15 11:31:00,
2013-07-15 06:36:00,77.0,67.8,30.20,NE,45,1.8,2.7,73,0.00,,,0.00,WUHU216HW,2013-07-15 11:36:00,
2013-07-15 06:41:00,77.9,69.3,30.20,SE,135,1.3,2.5,75,0.00,,,0.00,WUHU216HW,2013-07-15 11:41:00,
2013-07-15 06:46:00,79.2,70.2,30.21,SSE,158,1.1,2.5,74,0.00,,,0.00,WUHU216HW,2013-07-15 11:46:00,
2013-07-15 06:51:00,80.8,71.0,30.21,SE,135,1.3,2.5,72,0.00,,,0.00,WUHU216HW,2013-07-15 11:51:00,
2013-07-15 06:55:00,81.2,69.6,30.20,SE,135,2.7,3.4,68,0.00,,,0.00,WUHU216HW,2013-07-15 11:55:00,
2013-07-15 07:00:00,81.0,68.6,30.20,SE,135,3.8,5.4,66,0.00,,,0.00,WUHU216HW,2013-07-15 12:00:00,
2013-07-15 07:05:00,80.5,67.6,30.21,SE,135,4.7,5.4,65,0.00,,,0.00,WUHU216HW,2013-07-15 12:05:00,
2013-07-15 07:10:00,80.3,67.9,30.21,SSE,158,2.7,5.1,66,0.00,,,0.00,WUHU216HW,2013-07-15 12:10:00,
2013-07-15 07:15:00,80.8,68.9,30.21,SE,135,3.8,5.1,67,0.00,,,0.00,WUHU216HW,2013-07-15 12:15:00,
2013-07-15 07:20:00,81.4,68.4,30.21,ESE,113,4.5,4.9,65,0.00,,,0.00,WUHU216HW,2013-07-15 12:20:00,
2013-07-15 07:25:00,81.2,68.7,30.21,East,90,2.5,4.7,66,0.00,,,0.00,WUHU216HW,2013-07-15 12:25:00,
2013-07-15 07:30:00,81.0,68.6,30.21,SE,135,2.5,4.5,66,0.00,,,0.00,WUHU216HW,2013-07-15 12:30:00,
2013-07-15 07:35:00,79.9,67.5,30.21,SE,135,4.9,5.1,66,0.00,,,0.00,WUHU216HW,2013-07-15 12:35:00,
2013-07-15 07:40:00,79.2,67.2,30.21,SE,135,4.7,5.6,67,0.00,,,0.00,WUHU216HW,2013-07-15 12:40:00,
2013-07-15 07:45:00,78.8,67.3,30.21,ESE,113,3.8,6.0,68,0.00,,,0.00,WUHU216HW,2013-07-15 12:45:00,
2013-07-15 07:50:00,78.7,67.2,30.21,SE,135,4.7,6.5,68,0.00,,,0.00,WUHU216HW,2013-07-15 12:50:00,
2013-07-15 07:55:00,78.7,68.0,30.21,SE,135,4.7,6.5,70,0.00,,,0.00,WUHU216HW,2013-07-15 12:55:00,
2013-07-15 08:00:00,78.8,68.2,30.21,SE,135,2.5,7.2,70,0.00,,,0.00,WUHU216HW,2013-07-15 13:00:00,
2013-07-15 08:05:00,79.2,68.1,30.22,SE,135,3.6,7.2,69,0.00,,,0.00,WUHU216HW,2013-07-15 13:05:00,
2013-07-15 08:10:00,79.6,68.0,30.22,SE,135,4.3,5.8,68,0.00,,,0.00,WUHU216HW,2013-07-15 13:10:00,
2013-07-15 08:15:00,79.9,68.9,30.22,SE,135,2.5,5.4,69,0.00,,,0.00,WUHU216HW,2013-07-15 13:15:00,
2013-07-15 08:20:00,80.3,68.8,30.22,ESE,113,4.9,5.1,68,0.00,,,0.00,WUHU216HW,2013-07-15 13:20:00,
2013-07-15 08:25:00,80.5,68.9,30.22,SE,135,4.5,6.0,68,0.00,,,0.00,WUHU216HW,2013-07-15 13:25:00,
2013-07-15 08:30:00,81.0,69.5,30.22,ESE,113,2.7,6.0,68,0.00,,,0.00,WUHU216HW,2013-07-15 13:30:00,
2013-07-15 08:35:00,81.2,69.6,30.22,ESE,113,3.6,6.0,68,0.00,,,0.00,WUHU216HW,2013-07-15 13:35:00,
2013-07-15 08:40:00,81.5,69.5,30.22,ESE,113,4.7,6.0,67,0.00,,,0.00,WUHU216HW,2013-07-15 13:40:00,
2013-07-15 08:45:00,81.7,69.7,30.22,SE,135,1.6,4.9,67,0.00,,,0.00,WUHU216HW,2013-07-15 13:45:00,
2013-07-15 08:50:00,82.3,70.1,30.22,SE,135,2.9,4.9,67,0.00,,,0.00,WUHU216HW,2013-07-15 13:50:00,
2013-07-15 08:55:00,82.4,70.7,30.22,ESE,113,3.4,4.7,68,0.00,,,0.00,WUHU216HW,2013-07-15 13:55:00,
2013-07-15 09:00:00,82.8,70.7,30.22,East,90,1.8,3.8,67,0.00,,,0.00,WUHU216HW,2013-07-15 14:00:00,
2013-07-15 09:05:00,82.8,70.7,30.22,East,90,2.5,3.8,67,0.00,,,0.00,WUHU216HW,2013-07-15 14:05:00,
2013-07-15 09:10:00,83.2,71.0,30.22,SSE,158,2.0,3.8,67,0.00,,,0.00,WUHU216HW,2013-07-15 14:10:00,
2013-07-15 09:15:00,83.9,71.7,30.22,SE,135,3.6,3.6,67,0.00,,,0.00,WUHU216HW,2013-07-15 14:15:00,
2013-07-15 09:20:00,84.6,72.0,30.22,ESE,113,3.4,3.6,66,0.00,,,0.00,WUHU216HW,2013-07-15 14:20:00,
2013-07-15 09:25:00,84.8,72.2,30.22,SE,135,2.5,3.6,66,0.00,,,0.00,WUHU216HW,2013-07-15 14:25:00,
2013-07-15 09:30:00,85.0,72.4,30.22,SSE,158,2.5,4.7,66,0.00,,,0.00,WUHU216HW,2013-07-15 14:30:00,
2013-07-15 09:35:00,85.3,72.7,30.22,ESE,113,1.8,4.7,66,0.00,,,0.00,WUHU216HW,2013-07-15 14:35:00,
2013-07-15 09:40:00,86.0,72.9,30.22,SE,135,4.7,4.7,65,0.00,,,0.00,WUHU216HW,2013-07-15 14:40:00,
2013-07-15 09:45:00,86.2,72.2,30.22,SE,135,2.7,5.6,63,0.00,,,0.00,WUHU216HW,2013-07-15 14:45:00,
2013-07-15 09:50:00,86.4,72.3,30.22,SE,135,2.9,5.6,63,0.00,,,0.00,WUHU216HW,2013-07-15 14:50:00,
2013-07-15 09:55:00,86.8,72.6,30.22,South,180,1.8,4.5,63,0.00,,,0.00,WUHU216HW,2013-07-15 14:55:00,
2013-07-15 10:01:00,87.1,73.0,30.22,SE,135,2.9,5.4,63,0.00,,,0.00,WUHU216HW,2013-07-15 15:01:00,
2013-07-15 10:06:00,87.5,72.5,30.22,SE,135,3.4,5.4,61,0.00,,,0.00,WUHU216HW,2013-07-15 15:06:00,
2013-07-15 10:11:00,87.5,72.9,30.22,SE,135,4.0,4.9,62,0.00,,,0.00,WUHU216HW,2013-07-15 15:11:00,
2013-07-15 10:16:00,87.8,72.4,30.22,SE,135,2.0,5.1,60,0.00,,,0.00,WUHU216HW,2013-07-15 15:16:00,
2013-07-15 10:21:00,88.0,72.6,30.22,ESE,113,2.9,5.1,60,0.00,,,0.00,WUHU216HW,2013-07-15 15:21:00,
2013-07-15 10:26:00,88.0,72.6,30.22,SE,135,1.8,5.4,60,0.00,,,0.00,WUHU216HW,2013-07-15 15:26:00,
2013-07-15 10:31:00,88.2,72.2,30.22,SE,135,3.4,5.6,59,0.00,,,0.00,WUHU216HW,2013-07-15 15:31:00,
2013-07-15 10:36:00,88.4,71.7,30.22,SW,225,3.1,5.1,58,0.00,,,0.00,WUHU216HW,2013-07-15 15:36:00,
2013-07-15 10:41:00,88.6,72.5,30.22,SW,225,2.5,5.4,59,0.00,,,0.00,WUHU216HW,2013-07-15 15:41:00,
2013-07-15 10:46:00,88.6,71.9,30.22,SE,135,1.8,5.4,58,0.00,,,0.00,WUHU216HW,2013-07-15 15:46:00,
2013-07-15 10:51:00,88.6,72.5,30.22,SE,135,3.8,5.4,59,0.00,,,0.00,WUHU216HW,2013-07-15 15:51:00,
2013-07-15 10:56:00,88.7,72.1,30.22,SE,135,2.2,6.5,58,0.00,,,0.00,WUHU216HW,2013-07-15 15:56:00,
2013-07-15 11:01:00,88.6,70.3,30.22,ENE,68,4.5,6.5,55,0.00,,,0.00,WUHU216HW,2013-07-15 16:01:00,
2013-07-15 11:07:00,88.0,71.5,30.22,SE,135,2.9,6.3,58,0.00,,,0.00,WUHU216HW,2013-07-15 16:07:00,
2013-07-15 11:12:00,88.0,72.6,30.22,SE,135,4.0,6.3,60,0.00,,,0.00,WUHU216HW,2013-07-15 16:12:00,
2013-07-15 11:17:00,88.0,71.5,30.22,ESE,113,4.0,7.4,58,0.00,,,0.00,WUHU216HW,2013-07-15 16:17:00,
2013-07-15 11:22:00,88.6,72.5,30.22,SSE,158,3.6,7.4,59,0.00,,,0.00,WUHU216HW,2013-07-15 16:22:00,
2013-07-15 11:27:00,89.1,71.9,30.22,SE,135,2.5,9.4,57,0.00,,,0.00,WUHU216HW,2013-07-15 16:27:00,
2013-07-15 11:32:00,89.5,71.6,30.22,SE,135,3.6,9.4,56,0.00,,,0.00,WUHU216HW,2013-07-15 16:32:00,
2013-07-15 11:37:00,89.5,73.3,30.22,NE,45,2.9,5.4,59,0.00,,,0.00,WUHU216HW,2013-07-15 16:37:00,
2013-07-15 11:42:00,89.1,71.4,30.22,SE,135,4.7,10.3,56,0.00,,,0.00,WUHU216HW,2013-07-15 16:42:00,
2013-07-15 11:47:00,89.3,72.0,30.22,ESE,113,4.0,10.3,57,0.00,,,0.00,WUHU216HW,2013-07-15 16:47:00,
2013-07-15 11:52:00,89.8,70.9,30.21,ENE,68,2.5,6.5,54,0.00,,,0.00,WUHU216HW,2013-07-15 16:52:00,
2013-07-15 11:57:00,90.0,71.7,30.21,East,90,3.8,5.4,55,0.00,,,0.00,WUHU216HW,2013-07-15 16:57:00,
2013-07-15 12:02:00,90.4,71.4,30.21,ESE,113,4.0,7.6,54,0.00,,,0.00,WUHU216HW,2013-07-15 17:02:00,
2013-07-15 12:07:00,90.7,71.7,30.21,SSW,203,6.3,7.8,54,0.00,,,0.00,WUHU216HW,2013-07-15 17:07:00,
2013-07-15 12:12:00,90.7,73.4,30.21,SSW,203,4.9,7.8,57,0.00,,,0.00,WUHU216HW,2013-07-15 17:12:00,
2013-07-15 12:17:00,91.1,72.5,30.21,SSW,203,3.6,6.3,55,0.00,,,0.00,WUHU216HW,2013-07-15 17:17:00,
2013-07-15 12:22:00,91.3,71.6,30.21,SW,225,3.4,6.3,53,0.00,,,0.00,WUHU216HW,2013-07-15 17:22:00,
2013-07-15 12:27:00,91.3,71.6,30.21,SSE,158,2.9,6.7,53,0.00,,,0.00,WUHU216HW,2013-07-15 17:27:00,
2013-07-15 12:32:00,90.7,72.3,30.21,South,180,1.8,6.7,55,0.00,,,0.00,WUHU216HW,2013-07-15 17:32:00,
2013-07-15 12:37:00,90.4,70.3,30.21,ESE,113,4.0,5.4,52,0.00,,,0.00,WUHU216HW,2013-07-15 17:37:00,
2013-07-15 12:42:00,90.5,72.1,30.21,South,180,2.9,5.4,55,0.00,,,0.00,WUHU216HW,2013-07-15 17:42:00,
2013-07-15 12:47:00,91.3,71.6,30.21,SE,135,6.5,8.5,53,0.00,,,0.00,WUHU216HW,2013-07-15 17:47:00,
2013-07-15 12:52:00,91.4,73.4,30.20,SE,135,1.8,8.5,56,0.00,,,0.00,WUHU216HW,2013-07-15 17:52:00,
2013-07-15 12:57:00,91.6,71.5,30.20,SE,135,3.1,8.3,52,0.00,,,0.00,WUHU216HW,2013-07-15 17:57:00,
2013-07-15 13:02:00,92.2,73.6,30.21,East,90,2.5,8.3,55,0.00,,,0.00,WUHU216HW,2013-07-15 18:02:00,
2013-07-15 13:08:00,92.0,71.8,30.21,SE,135,1.3,7.4,52,0.00,,,0.00,WUHU216HW,2013-07-15 18:08:00,
2013-07-15 13:13:00,92.3,72.1,30.20,SSE,158,5.4,7.4,52,0.00,,,0.00,WUHU216HW,2013-07-15 18:13:00,
2013-07-15 13:18:00,92.5,72.3,30.20,SSE,158,1.8,5.4,52,0.00,,,0.00,WUHU216HW,2013-07-15 18:18:00,
2013-07-15 13:23:00,92.9,74.3,30.20,SSW,203,2.7,5.4,55,0.00,,,0.00,WUHU216HW,2013-07-15 18:23:00,
2013-07-15 13:28:00,93.6,72.2,30.20,ESE,113,6.5,7.4,50,0.00,,,0.00,WUHU216HW,2013-07-15 18:28:00,
2013-07-15 13:33:00,93.8,72.4,30.20,SE,135,4.9,7.4,50,0.00,,,0.00,WUHU216HW,2013-07-15 18:33:00,
2013-07-15 13:38:00,92.9,72.1,30.20,SE,135,3.4,7.4,51,0.00,,,0.00,WUHU216HW,2013-07-15 18:38:00,
2013-07-15 13:43:00,93.2,72.4,30.20,ESE,113,7.2,8.5,51,0.00,,,0.00,WUHU216HW,2013-07-15 18:43:00,
2013-07-15 13:48:00,93.8,71.7,30.20,SE,135,4.3,8.5,49,0.00,,,0.00,WUHU216HW,2013-07-15 18:48:00,
2013-07-15 13:53:00,93.4,70.8,30.20,East,90,4.0,7.6,48,0.00,,,0.00,WUHU216HW,2013-07-15 18:53:00,
2013-07-15 13:58:00,91.8,70.6,30.20,ENE,68,5.8,7.2,50,0.00,,,0.00,WUHU216HW,2013-07-15 18:58:00,
2013-07-15 14:03:00,92.0,72.4,30.19,ESE,113,2.7,7.2,53,0.00,,,0.00,WUHU216HW,2013-07-15 19:03:00,
2013-07-15 14:08:00,92.9,72.1,30.19,SSE,158,4.7,7.4,51,0.00,,,0.00,WUHU216HW,2013-07-15 19:08:00,
2013-07-15 14:13:00,92.5,71.2,30.19,SE,135,4.7,7.4,50,0.00,,,0.00,WUHU216HW,2013-07-15 19:13:00,
2013-07-15 14:19:00,92.3,72.1,30.19,SE,135,4.0,6.0,52,0.00,,,0.00,WUHU216HW,2013-07-15 19:19:00,
2013-07-15 14:24:00,93.1,71.6,30.19,ESE,113,7.4,9.8,50,0.00,,,0.00,WUHU216HW,2013-07-15 19:24:00,
2013-07-15 14:29:00,92.5,71.2,30.19,SE,135,6.3,9.8,50,0.00,,,0.00,WUHU216HW,2013-07-15 19:29:00,
2013-07-15 14:34:00,92.7,71.4,30.19,SE,135,2.0,8.3,50,0.00,,,0.00,WUHU216HW,2013-07-15 19:34:00,
2013-07-15 14:39:00,92.9,71.5,30.19,SSE,158,3.4,6.0,50,0.00,,,0.00,WUHU216HW,2013-07-15 19:39:00,
2013-07-15 14:44:00,92.9,72.6,30.19,SE,135,4.0,4.9,52,0.00,,,0.00,WUHU216HW,2013-07-15 19:44:00,
2013-07-15 14:49:00,93.1,72.8,30.19,SE,135,4.9,6.9,52,0.00,,,0.00,WUHU216HW,2013-07-15 19:49:00,
2013-07-15 14:54:00,92.7,71.9,30.19,ESE,113,3.6,6.9,51,0.00,,,0.00,WUHU216HW,2013-07-15 19:54:00,
2013-07-15 14:59:00,92.0,71.8,30.18,SE,135,3.4,5.6,52,0.00,,,0.00,WUHU216HW,2013-07-15 19:59:00,
2013-07-15 15:04:00,91.4,71.3,30.18,SE,135,4.7,5.4,52,0.00,,,0.00,WUHU216HW,2013-07-15 20:04:00,
2013-07-15 15:09:00,91.4,71.8,30.18,SE,135,5.8,6.7,53,0.00,,,0.00,WUHU216HW,2013-07-15 20:09:00,
2013-07-15 15:14:00,91.4,71.8,30.18,East,90,3.1,6.7,53,0.00,,,0.00,WUHU216HW,2013-07-15 20:14:00,
2013-07-15 15:19:00,90.7,70.7,30.18,ENE,68,3.6,6.0,52,0.00,,,0.00,WUHU216HW,2013-07-15 20:19:00,
2013-07-15 15:24:00,90.4,71.4,30.18,East,90,2.0,4.0,54,0.00,,,0.00,WUHU216HW,2013-07-15 20:24:00,
2013-07-15 15:29:00,90.2,71.2,30.18,NE,45,2.0,3.4,54,0.00,,,0.00,WUHU216HW,2013-07-15 20:29:00,
2013-07-15 15:34:00,90.4,71.9,30.18,SSE,158,2.5,3.8,55,0.00,,,0.00,WUHU216HW,2013-07-15 20:34:00,
2013-07-15 15:39:00,90.7,71.7,30.17,ESE,113,4.7,6.5,54,0.00,,,0.00,WUHU216HW,2013-07-15 20:39:00,
2013-07-15 15:44:00,90.7,72.8,30.18,ESE,113,3.8,6.5,56,0.00,,,0.00,WUHU216HW,2013-07-15 20:44:00,
2013-07-15 15:49:00,90.2,72.3,30.17,ENE,68,3.4,5.4,56,0.00,,,0.00,WUHU216HW,2013-07-15 20:49:00,
2013-07-15 15:54:00,89.5,71.6,30.17,NE,45,6.0,6.0,56,0.00,,,0.00,WUHU216HW,2013-07-15 20:54:00,
2013-07-15 15:59:00,88.9,71.2,30.17,East,90,7.4,7.4,56,0.00,,,0.00,WUHU216HW,2013-07-15 20:59:00,
2013-07-15 16:04:00,89.1,71.9,30.17,East,90,2.5,7.4,57,0.00,,,0.00,WUHU216HW,2013-07-15 21:04:00,
2013-07-15 16:10:00,89.6,72.4,30.17,ENE,68,5.4,6.7,57,0.00,,,0.00,WUHU216HW,2013-07-15 21:10:00,
2013-07-15 16:15:00,90.2,72.3,30.17,SSE,158,4.0,6.7,56,0.00,,,0.00,WUHU216HW,2013-07-15 21:15:00,
2013-07-15 16:20:00,91.1,73.1,30.17,SSE,158,4.0,6.0,56,0.00,,,0.00,WUHU216HW,2013-07-15 21:20:00,
2013-07-15 16:25:00,92.0,72.9,30.17,SSE,158,2.0,6.3,54,0.00,,,0.00,WUHU216HW,2013-07-15 21:25:00,
2013-07-15 16:30:00,92.5,73.9,30.17,SE,135,1.6,6.3,55,0.00,,,0.00,WUHU216HW,2013-07-15 21:30:00,
2013-07-15 16:35:00,93.1,72.8,30.17,SSE,158,3.6,4.0,52,0.00,,,0.00,WUHU216HW,2013-07-15 21:35:00,
2013-07-15 16:40:00,93.4,73.7,30.17,SSE,158,2.2,4.0,53,0.00,,,0.00,WUHU216HW,2013-07-15 21:40:00,
2013-07-15 16:45:00,93.2,72.9,30.16,SSW,203,2.0,4.5,52,0.00,,,0.00,WUHU216HW,2013-07-15 21:45:00,
2013-07-15 16:50:00,93.2,73.5,30.16,SE,135,4.7,4.7,53,0.00,,,0.00,WUHU216HW,2013-07-15 21:50:00,
2013-07-15 16:55:00,93.2,72.9,30.16,SE,135,4.0,6.3,52,0.00,,,0.00,WUHU216HW,2013-07-15 21:55:00,
2013-07-15 17:00:00,92.3,72.6,30.16,SSE,158,4.7,6.3,53,0.00,,,0.00,WUHU216HW,2013-07-15 22:00:00,
2013-07-15 17:05:00,91.3,72.2,30.16,SE,135,3.4,4.9,54,0.00,,,0.00,WUHU216HW,2013-07-15 22:05:00,
2013-07-15 17:10:00,91.4,72.4,30.16,ESE,113,6.9,6.9,54,0.00,,,0.00,WUHU216HW,2013-07-15 22:10:00,
2013-07-15 17:15:00,91.6,72.6,30.16,SSE,158,5.6,6.9,54,0.00,,,0.00,WUHU216HW,2013-07-15 22:15:00,
2013-07-15 17:20:00,91.4,72.9,30.16,ESE,113,7.4,7.8,55,0.00,,,0.00,WUHU216HW,2013-07-15 22:20:00,
2013-07-15 17:25:00,91.1,72.0,30.16,NE,45,5.6,8.1,54,0.00,,,0.00,WUHU216HW,2013-07-15 22:25:00,
2013-07-15 17:30:00,90.4,72.5,30.16,East,90,4.7,8.1,56,0.00,,,0.00,WUHU216HW,2013-07-15 22:30:00,
2013-07-15 17:36:00,89.8,72.6,30.16,ENE,68,5.6,5.8,57,0.00,,,0.00,WUHU216HW,2013-07-15 22:36:00,
2013-07-15 17:41:00,89.5,72.2,30.15,SE,135,11.4,13.0,57,0.00,,,0.00,WUHU216HW,2013-07-15 22:41:00,
2013-07-15 17:46:00,88.9,72.3,30.15,SE,135,4.5,13.0,58,0.00,,,0.00,WUHU216HW,2013-07-15 22:46:00,
2013-07-15 17:51:00,88.6,72.5,30.15,ESE,113,6.3,11.4,59,0.00,,,0.00,WUHU216HW,2013-07-15 22:51:00,
2013-07-15 17:56:00,88.4,72.8,30.15,East,90,9.6,9.6,60,0.00,,,0.00,WUHU216HW,2013-07-15 22:56:00,
2013-07-15 18:01:00,88.9,72.8,30.15,NNE,23,4.5,10.3,59,0.00,,,0.00,WUHU216HW,2013-07-15 23:01:00,
2013-07-15 18:06:00,89.3,72.5,30.15,ESE,113,7.2,10.3,58,0.00,,,0.00,WUHU216HW,2013-07-15 23:06:00,
2013-07-15 18:11:00,89.8,72.6,30.15,ESE,113,5.8,11.2,57,0.00,,,0.00,WUHU216HW,2013-07-15 23:11:00,
2013-07-15 18:16:00,90.0,72.2,30.15,ESE,113,7.6,11.4,56,0.00,,,0.00,WUHU216HW,2013-07-15 23:16:00,
2013-07-15 18:21:00,89.3,71.5,30.15,ESE,113,11.6,11.6,56,0.00,,,0.00,WUHU216HW,2013-07-15 23:21:00,
2013-07-15 18:26:00,88.7,71.6,30.15,SE,135,8.9,11.6,57,0.00,,,0.00,WUHU216HW,2013-07-15 23:26:00,
2013-07-15 18:31:00,88.6,71.4,30.15,SE,135,7.6,11.6,57,0.00,,,0.00,WUHU216HW,2013-07-15 23:31:00,
2013-07-15 18:36:00,88.2,71.7,30.15,ESE,113,4.0,10.7,58,0.00,,,0.00,WUHU216HW,2013-07-15 23:36:00,
2013-07-15 18:41:00,87.8,72.4,30.15,East,90,4.0,10.1,60,0.00,,,0.00,WUHU216HW,2013-07-15 23:41:00,
2013-07-15 18:46:00,87.3,72.3,30.15,East,90,3.4,6.5,61,0.00,,,0.00,WUHU216HW,2013-07-15 23:46:00,
2013-07-15 18:51:00,86.9,71.9,30.15,ESE,113,5.1,5.8,61,0.00,,,0.00,WUHU216HW,2013-07-15 23:51:00,
2013-07-15 18:56:00,86.6,72.0,30.15,SE,135,2.7,5.8,62,0.00,,,0.00,WUHU216HW,2013-07-15 23:56:00,
2013-07-15 19:01:00,86.6,72.5,30.15,ESE,113,4.7,5.1,63,0.00,,,0.00,WUHU216HW,2013-07-16 00:01:00,
2013-07-15 19:06:00,88.9,73.8,30.15,East,90,3.4,5.1,61,0.00,,,0.00,WUHU216HW,2013-07-16 00:06:00,
2013-07-15 19:11:00,91.1,74.2,30.15,NE,45,2.5,5.4,58,0.00,,,0.00,WUHU216HW,2013-07-16 00:11:00,
2013-07-15 19:16:00,92.9,73.7,30.15,East,90,2.5,5.4,54,0.00,,,0.00,WUHU216HW,2013-07-16 00:16:00,
2013-07-15 19:21:00,93.6,74.4,30.15,ESE,113,6.3,9.2,54,0.00,,,0.00,WUHU216HW,2013-07-16 00:21:00,
2013-07-15 19:27:00,92.9,74.3,30.15,SE,135,11.2,11.4,55,0.00,,,0.00,WUHU216HW,2013-07-16 00:27:00,
2013-07-15 19:32:00,92.0,74.5,30.15,SE,135,9.2,11.9,57,0.00,,,0.00,WUHU216HW,2013-07-16 00:32:00,
2013-07-15 19:37:00,90.9,74.6,30.15,SE,135,8.5,11.9,59,0.00,,,0.00,WUHU216HW,2013-07-16 00:37:00,
2013-07-15 19:42:00,90.0,74.8,30.15,ESE,113,8.5,9.4,61,0.00,,,0.00,WUHU216HW,2013-07-16 00:42:00,
2013-07-15 19:47:00,89.1,74.4,30.16,ESE,113,7.8,10.1,62,0.00,,,0.00,WUHU216HW,2013-07-16 00:47:00,
2013-07-15 19:52:00,87.5,73.8,30.16,ESE,113,8.9,10.1,64,0.00,,,0.00,WUHU216HW,2013-07-16 00:52:00,
2013-07-15 19:57:00,86.4,73.7,30.16,SE,135,6.3,8.9,66,0.00,,,0.00,WUHU216HW,2013-07-16 00:57:00,
2013-07-15 20:02:00,85.3,73.6,30.16,SE,135,5.8,8.9,68,0.00,,,0.00,WUHU216HW,2013-07-16 01:02:00,
2013-07-15 20:07:00,85.0,73.3,30.16,ESE,113,5.6,7.6,68,0.00,,,0.00,WUHU216HW,2013-07-16 01:07:00,
2013-07-15 20:12:00,84.6,73.8,30.16,SE,135,7.8,7.8,70,0.00,,,0.00,WUHU216HW,2013-07-16 01:12:00,
2013-07-15 20:17:00,84.1,73.6,30.16,East,90,4.7,7.8,71,0.00,,,0.00,WUHU216HW,2013-07-16 01:17:00,
2013-07-15 20:22:00,83.3,74.2,30.16,ESE,113,4.7,7.4,74,0.00,,,0.00,WUHU216HW,2013-07-16 01:22:00,
2013-07-15 20:27:00,82.6,74.3,30.17,SE,135,4.7,7.4,76,0.00,,,0.00,WUHU216HW,2013-07-16 01:27:00,
2013-07-15 20:32:00,82.1,73.8,30.17,East,90,4.3,8.1,76,0.00,,,0.00,WUHU216HW,2013-07-16 01:32:00,
2013-07-15 20:37:00,81.7,73.8,30.17,ESE,113,4.5,8.1,77,0.00,,,0.00,WUHU216HW,2013-07-16 01:37:00,
2013-07-15 20:42:00,81.2,73.7,30.16,ENE,68,3.4,6.3,78,0.00,,,0.00,WUHU216HW,2013-07-16 01:42:00,
2013-07-15 20:47:00,80.8,73.4,30.17,East,90,4.7,6.5,78,0.00,,,0.00,WUHU216HW,2013-07-16 01:47:00,
2013-07-15 20:52:00,80.5,73.5,30.17,East,90,6.3,6.5,79,0.00,,,0.00,WUHU216HW,2013-07-16 01:52:00,
2013-07-15 20:57:00,80.1,73.1,30.17,East,90,3.4,6.3,79,0.00,,,0.00,WUHU216HW,2013-07-16 01:57:00,
2013-07-15 21:02:00,79.9,73.3,30.17,SE,135,4.0,5.8,80,0.00,,,0.00,WUHU216HW,2013-07-16 02:02:00,
2013-07-15 21:07:00,79.7,72.7,30.17,SE,135,3.4,6.3,79,0.00,,,0.00,WUHU216HW,2013-07-16 02:07:00,
2013-07-15 21:12:00,79.7,72.7,30.17,ESE,113,4.3,6.3,79,0.00,,,0.00,WUHU216HW,2013-07-16 02:12:00,
2013-07-15 21:17:00,79.6,72.6,30.17,SE,135,4.0,4.7,79,0.00,,,0.00,WUHU216HW,2013-07-16 02:17:00,
2013-07-15 21:22:00,79.6,72.6,30.17,SE,135,3.6,5.4,79,0.00,,,0.00,WUHU216HW,2013-07-16 02:22:00,
2013-07-15 21:27:00,79.6,72.9,30.18,ENE,68,5.6,5.6,80,0.00,,,0.00,WUHU216HW,2013-07-16 02:27:00,
2013-07-15 21:32:00,79.4,72.7,30.18,ESE,113,2.5,5.6,80,0.00,,,0.00,WUHU216HW,2013-07-16 02:32:00,
2013-07-15 21:38:00,79.2,72.2,30.18,ESE,113,4.0,5.4,79,0.00,,,0.00,WUHU216HW,2013-07-16 02:38:00,
2013-07-15 21:43:00,79.2,72.2,30.18,SE,135,3.8,4.7,79,0.00,,,0.00,WUHU216HW,2013-07-16 02:43:00,
2013-07-15 21:48:00,79.0,72.0,30.19,SE,135,3.4,4.0,79,0.00,,,0.00,WUHU216HW,2013-07-16 02:48:00,
2013-07-15 21:53:00,78.8,71.8,30.19,ESE,113,4.0,4.7,79,0.00,,,0.00,WUHU216HW,2013-07-16 02:53:00,
2013-07-15 21:58:00,78.7,71.7,30.19,East,90,1.8,6.7,79,0.00,,,0.00,WUHU216HW,2013-07-16 02:58:00,
2013-07-15 22:03:00,78.7,72.0,30.19,SSE,158,3.4,6.7,80,0.00,,,0.00,WUHU216HW,2013-07-16 03:03:00,
2013-07-15 22:08:00,78.5,71.8,30.19,SE,135,4.0,5.1,80,0.00,,,0.00,WUHU216HW,2013-07-16 03:08:00,
2013-07-15 22:13:00,78.5,72.2,30.19,SE,135,5.4,5.4,81,0.00,,,0.00,WUHU216HW,2013-07-16 03:13:00,
2013-07-15 22:18:00,78.5,72.2,30.19,SE,135,4.9,6.0,81,0.00,,,0.00,WUHU216HW,2013-07-16 03:18:00,
2013-07-15 22:23:00,78.5,71.8,30.19,SE,135,4.3,6.0,80,0.00,,,0.00,WUHU216HW,2013-07-16 03:23:00,
2013-07-15 22:28:00,78.5,72.2,30.19,SE,135,4.9,5.6,81,0.00,,,0.00,WUHU216HW,2013-07-16 03:28:00,
2013-07-15 22:33:00,78.5,72.2,30.19,SE,135,3.6,5.6,81,0.00,,,0.00,WUHU216HW,2013-07-16 03:33:00,
2013-07-15 22:38:00,78.3,71.6,30.19,SE,135,4.3,4.9,80,0.00,,,0.00,WUHU216HW,2013-07-16 03:38:00,
2013-07-15 22:43:00,78.3,72.0,30.19,SE,135,2.7,4.9,81,0.00,,,0.00,WUHU216HW,2013-07-16 03:43:00,
2013-07-15 22:48:00,78.1,71.8,30.19,ESE,113,2.2,5.4,81,0.00,,,0.00,WUHU216HW,2013-07-16 03:48:00,
2013-07-15 22:53:00,78.1,71.8,30.19,SE,135,3.4,5.4,81,0.00,,,0.00,WUHU216HW,2013-07-16 03:53:00,
2013-07-15 22:58:00,78.1,71.8,30.19,SE,135,2.7,4.5,81,0.00,,,0.00,WUHU216HW,2013-07-16 03:58:00,
2013-07-15 23:01:00,77.9,71.6,30.19,SE,135,2.9,4.0,81,0.00,,,0.00,WUHU216HW,2013-07-16 04:01:00,
2013-07-15 23:06:00,77.8,71.5,30.19,SSE,158,3.4,3.6,81,0.00,,,0.00,WUHU216HW,2013-07-16 04:06:00,
2013-07-15 23:11:00,77.8,71.8,30.19,SE,135,3.6,4.7,82,0.00,,,0.00,WUHU216HW,2013-07-16 04:11:00,
2013-07-15 23:16:00,77.6,71.6,30.19,SE,135,3.6,5.1,82,0.00,,,0.00,WUHU216HW,2013-07-16 04:16:00,
2013-07-15 23:21:00,77.4,71.1,30.19,ESE,113,3.4,5.1,81,0.00,,,0.00,WUHU216HW,2013-07-16 04:21:00,
2013-07-15 23:26:00,77.4,71.5,30.19,SE,135,2.9,4.5,82,0.00,,,0.00,WUHU216HW,2013-07-16 04:26:00,
2013-07-15 23:31:00,77.2,71.3,30.19,SE,135,2.5,4.5,82,0.00,,,0.00,WUHU216HW,2013-07-16 04:31:00,
2013-07-15 23:36:00,77.0,71.1,30.19,SSE,158,2.5,4.0,82,0.00,,,0.00,WUHU216HW,2013-07-16 04:36:00,
2013-07-15 23:41:00,77.0,71.5,30.19,SE,135,2.9,4.7,83,0.00,,,0.00,WUHU216HW,2013-07-16 04:41:00,
2013-07-15 23:46:00,77.0,71.5,30.19,South,180,3.4,4.7,83,0.00,,,0.00,WUHU216HW,2013-07-16 04:46:00,
2013-07-15 23:51:00,77.0,71.5,30.19,SSE,158,3.1,4.7,83,0.00,,,0.00,WUHU216HW,2013-07-16 04:51:00,
2013-07-15 23:56:00,76.9,71.3,30.19,ESE,113,2.7,4.0,83,0.00,,,0.00,WUHU216HW,2013-07-16 04:56:00,